PWSweather.com
Personal Weather Stations
Station Observations
SANDHURSTWX
SandhurstGB

SandhurstGB

Lat: 51.3522, Lon: -0.7739

Elevation: 272.3

Station Type: Davis VP2

www.sandhurstweather.org.uk

High Low Average
Temperature 65.5°F18.6°C 55.7°F13.2°C 60.8°F16.0°C
Dew Point 61.5°F16.4°C 53.0°F11.7°C 57.7°F14.3°C
Winds 9.2 mph 14.8 kmh Calm Calm 3.0 mph SSW4.8 kmh SSW
Wind Gusts 12.7 mph20.4 kmh 1.2 mph1.9 kmh 6.0 mph9.7 kmh
Humidity 97% 74% 90%
Pressure 29.68 in1005.1 mb 29.56 in1001.0 mb -
Precipitation 0.19 in4.8 mm - -
Hour Temp Dew Point Humidity Winds Wind Gusts Pressure Precip Precip Rate Daily Precip Total
12:00 AM 60.0°F15.6°C 58.3°F14.6°C 94% 2.3 mph SSE3.7 kmh SSE 5.8 mph9.3 kmh 29.61 in1002.7 mb - 0.00 in0.0 mm 0.00 in0.0 mm
01:00 AM 60.3°F15.7°C 58.9°F14.9°C 95% 2.3 mph S3.7 kmh S 5.8 mph9.3 kmh 29.61 in1002.7 mb - 0.00 in0.0 mm 0.00 in0.0 mm
02:00 AM 60.5°F15.8°C 59.0°F15.0°C 95% 3.5 mph S5.6 kmh S 6.9 mph11.1 kmh 29.59 in1002.0 mb - 0.03 in0.8 mm 0.03 in0.8 mm
03:00 AM 60.5°F15.8°C 59.3°F15.2°C 96% 5.8 mph S9.3 kmh S 8.1 mph13.0 kmh 29.58 in1001.7 mb - 0.00 in0.0 mm 0.03 in0.8 mm
04:00 AM 61.1°F16.2°C 60.2°F15.7°C 97% 4.6 mph SSW7.4 kmh SSW 6.9 mph11.1 kmh 29.57 in1001.4 mb - 0.01 in0.3 mm 0.04 in1.0 mm
05:00 AM 61.7°F16.5°C 60.8°F16.0°C 97% 3.5 mph SSE5.6 kmh SSE 8.1 mph13.0 kmh 29.56 in1001.0 mb - 0.00 in0.0 mm 0.04 in1.0 mm
06:00 AM 61.7°F16.5°C 60.8°F16.0°C 97% 3.5 mph S5.6 kmh S 5.8 mph9.3 kmh 29.56 in1001.0 mb - 0.06 in1.5 mm 0.09 in2.3 mm
07:00 AM 61.8°F16.6°C 60.9°F16.1°C 97% 3.5 mph SSW5.6 kmh SSW 6.9 mph11.1 kmh 29.57 in1001.4 mb - 0.02 in0.5 mm 0.11 in2.8 mm
08:00 AM 61.6°F16.4°C 60.8°F16.0°C 97% Calm Calm 1.2 mph1.9 kmh 29.59 in1002.0 mb - 0.00 in0.0 mm 0.11 in2.8 mm
09:00 AM 60.5°F15.8°C 59.4°F15.2°C 96% 2.3 mph SW3.7 kmh SW 4.6 mph7.4 kmh 29.59 in1002.0 mb - 0.07 in1.8 mm 0.18 in4.6 mm
10:00 AM 63.2°F17.3°C 61.5°F16.4°C 94% 2.3 mph WSW3.7 kmh WSW 4.6 mph7.4 kmh 29.60 in1002.4 mb - 0.00 in0.0 mm 0.18 in4.6 mm
11:00 AM 63.2°F17.3°C 59.9°F15.5°C 89% 2.3 mph SW3.7 kmh SW 2.3 mph3.7 kmh 29.61 in1002.7 mb - 0.00 in0.0 mm 0.18 in4.6 mm
12:00 PM 64.1°F17.8°C 58.4°F14.7°C 82% 4.6 mph SSW7.4 kmh SSW 10.4 mph16.7 kmh 29.61 in1002.7 mb - 0.00 in0.0 mm 0.18 in4.6 mm
01:00 PM 64.6°F18.1°C 56.9°F13.8°C 76% 2.3 mph SW3.7 kmh SW 3.5 mph5.6 kmh 29.61 in1002.7 mb - 0.00 in0.0 mm 0.18 in4.6 mm
02:00 PM 65.5°F18.6°C 57.0°F13.9°C 74% 4.6 mph SW7.4 kmh SW 4.6 mph7.4 kmh 29.62 in1003.0 mb - 0.00 in0.0 mm 0.18 in4.6 mm
03:00 PM 61.0°F16.1°C 57.4°F14.1°C 88% 1.2 mph W1.9 kmh W 3.5 mph5.6 kmh 29.62 in1003.0 mb - 0.01 in0.3 mm 0.19 in4.8 mm
04:00 PM 63.3°F17.4°C 57.3°F14.1°C 81% 2.3 mph S3.7 kmh S 3.5 mph5.6 kmh 29.62 in1003.0 mb - 0.00 in0.0 mm 0.19 in4.8 mm
05:00 PM 62.4°F16.9°C 56.1°F13.4°C 80% 9.2 mph S14.8 kmh S 12.7 mph20.4 kmh 29.62 in1003.0 mb - 0.00 in0.0 mm 0.19 in4.8 mm
06:00 PM 60.3°F15.7°C 54.4°F12.4°C 81% 4.6 mph S7.4 kmh S 5.8 mph9.3 kmh 29.64 in1003.7 mb - 0.00 in0.0 mm 0.19 in4.8 mm
07:00 PM 58.2°F14.6°C 54.4°F12.4°C 87% 1.2 mph SW1.9 kmh SW 2.3 mph3.7 kmh 29.66 in1004.4 mb - 0.00 in0.0 mm 0.19 in4.8 mm
08:00 PM 56.7°F13.7°C 53.5°F11.9°C 89% 3.5 mph SSW5.6 kmh SSW 4.6 mph7.4 kmh 29.66 in1004.4 mb - 0.00 in0.0 mm 0.19 in4.8 mm
09:00 PM 56.2°F13.4°C 53.0°F11.7°C 89% 3.5 mph S5.6 kmh S 4.6 mph7.4 kmh 29.68 in1005.1 mb - 0.00 in0.0 mm 0.19 in4.8 mm
10:00 PM 55.7°F13.2°C 53.4°F11.9°C 92% 5.8 mph S9.3 kmh S 6.9 mph11.1 kmh 29.68 in1005.1 mb - 0.00 in0.0 mm 0.19 in4.8 mm
11:00 PM 56.0°F13.3°C 53.7°F12.1°C 92% 3.5 mph SSW5.6 kmh SSW 9.2 mph14.8 kmh 29.67 in1004.7 mb - 0.00 in0.0 mm 0.20 in5.1 mm